createdAt,value
2023-05-25T00:01:16.379Z,15.73
2023-05-25T00:03:45.994Z,15.77
2023-05-25T00:06:15.698Z,15.78
2023-05-25T00:08:43.829Z,15.81
2023-05-25T00:11:12.491Z,15.81
2023-05-25T00:13:40.717Z,15.78
2023-05-25T00:16:10.469Z,15.78
2023-05-25T00:18:39.081Z,15.80
2023-05-25T00:21:07.564Z,15.78
2023-05-25T00:23:35.990Z,15.78
2023-05-25T00:26:05.087Z,15.79
2023-05-25T00:28:33.404Z,15.79
2023-05-25T00:31:01.572Z,15.80
2023-05-25T00:33:31.333Z,15.79
2023-05-25T00:36:00.379Z,15.81
2023-05-25T00:38:28.599Z,15.78
2023-05-25T00:40:57.632Z,15.74
2023-05-25T00:43:25.777Z,15.70
2023-05-25T00:45:54.670Z,15.70
2023-05-25T00:48:23.816Z,15.67
2023-05-25T00:50:58.074Z,15.71
2023-05-25T00:53:26.599Z,15.73
2023-05-25T00:55:58.846Z,15.83
2023-05-25T00:58:32.131Z,15.88
2023-05-25T01:01:03.141Z,15.87
2023-05-25T01:03:37.922Z,15.89
2023-05-25T01:06:13.347Z,15.88
2023-05-25T01:08:45.961Z,15.89
2023-05-25T01:11:16.403Z,15.86
2023-05-25T01:13:46.427Z,15.82
2023-05-25T01:16:16.817Z,15.78
2023-05-25T01:18:44.932Z,15.73
2023-05-25T01:21:20.480Z,15.70
2023-05-25T01:23:54.156Z,15.66
2023-05-25T01:26:27.693Z,15.62
2023-05-25T01:28:57.083Z,15.55
2023-05-25T01:31:25.666Z,15.49
2023-05-25T01:33:54.893Z,15.50
2023-05-25T01:36:24.438Z,15.51
2023-05-25T01:38:52.756Z,15.50
2023-05-25T01:41:21.639Z,15.49
2023-05-25T01:43:49.903Z,15.49
2023-05-25T01:46:25.708Z,15.44
2023-05-25T01:48:59.539Z,15.39
2023-05-25T01:51:45.265Z,15.34
2023-05-25T01:54:19.459Z,15.27
2023-05-25T01:56:51.062Z,15.22
2023-05-25T01:59:24.418Z,15.20
2023-05-25T02:01:53.580Z,15.16
2023-05-25T02:04:23.533Z,15.15
2023-05-25T02:06:54.337Z,15.09
2023-05-25T02:09:22.751Z,15.04
2023-05-25T02:11:51.053Z,15.01
2023-05-25T02:14:19.354Z,15.00
2023-05-25T02:16:47.558Z,14.93
2023-05-25T02:19:16.241Z,14.93
2023-05-25T02:21:44.614Z,14.85
2023-05-25T02:24:14.222Z,14.83
2023-05-25T02:26:42.403Z,14.77
2023-05-25T02:29:11.738Z,14.77
2023-05-25T02:31:40.013Z,14.77
2023-05-25T02:34:08.232Z,14.73
2023-05-25T02:36:39.556Z,14.71
2023-05-25T02:39:07.704Z,14.67
2023-05-25T02:41:37.188Z,14.63
2023-05-25T02:44:05.651Z,14.62
2023-05-25T02:46:34.745Z,14.61
2023-05-25T02:49:03.476Z,14.56
2023-05-25T02:51:32.596Z,14.56
2023-05-25T02:54:01.358Z,14.54
2023-05-25T02:56:29.549Z,14.55
2023-05-25T02:58:59.112Z,14.51
2023-05-25T03:01:31.236Z,14.47
2023-05-25T03:03:59.717Z,14.41
2023-05-25T03:06:27.996Z,14.35
2023-05-25T03:08:56.297Z,14.33
2023-05-25T03:11:24.677Z,14.34
2023-05-25T03:13:53.407Z,14.32
2023-05-25T03:16:24.267Z,14.36
2023-05-25T03:18:52.435Z,14.36
2023-05-25T03:21:22.528Z,14.38
2023-05-25T03:23:51.153Z,14.37
2023-05-25T03:26:19.278Z,14.38
2023-05-25T03:28:47.556Z,14.37
2023-05-25T03:31:15.864Z,14.33
2023-05-25T03:33:45.656Z,14.33
2023-05-25T03:36:17.417Z,14.28
2023-05-25T03:38:45.953Z,14.21
2023-05-25T03:41:14.202Z,14.18
2023-05-25T03:43:42.390Z,14.18
2023-05-25T03:46:11.810Z,14.13
2023-05-25T03:48:40.034Z,14.11
2023-05-25T03:51:09.607Z,14.04
2023-05-25T03:53:37.886Z,14.05
2023-05-25T03:56:06.664Z,14.07
2023-05-25T03:58:34.874Z,14.04
2023-05-25T04:01:05.099Z,14.05
2023-05-25T04:03:33.932Z,14.07
2023-05-25T04:06:02.336Z,14.04
2023-05-25T04:08:31.955Z,14.00
2023-05-25T04:11:00.149Z,13.98
2023-05-25T04:13:28.266Z,13.97
2023-05-25T04:15:56.995Z,13.97
2023-05-25T04:18:25.250Z,13.96
2023-05-25T04:20:55.520Z,13.97
2023-05-25T04:23:23.673Z,13.96
2023-05-25T04:25:53.821Z,13.94
2023-05-25T04:28:22.878Z,13.90
2023-05-25T04:30:51.452Z,13.87
2023-05-25T04:33:19.601Z,13.91
2023-05-25T04:35:49.123Z,13.89
2023-05-25T04:38:17.793Z,14.00
2023-05-25T04:40:47.436Z,14.19
2023-05-25T04:43:18.428Z,14.23
2023-05-25T04:45:47.392Z,14.45
2023-05-25T04:48:15.882Z,14.74
2023-05-25T04:50:44.275Z,14.99
2023-05-25T04:53:12.415Z,15.24
2023-05-25T04:55:41.104Z,15.36
2023-05-25T04:58:09.246Z,15.27
2023-05-25T05:00:40.456Z,15.12
2023-05-25T05:03:08.739Z,15.07
2023-05-25T05:05:37.305Z,15.12
2023-05-25T05:08:05.708Z,15.19
2023-05-25T05:10:33.844Z,15.14
2023-05-25T05:13:02.084Z,14.98
2023-05-25T05:15:30.256Z,14.82
2023-05-25T05:18:00.198Z,14.74
2023-05-25T05:20:28.405Z,14.65
2023-05-25T05:22:56.701Z,14.65
2023-05-25T05:25:24.857Z,14.67
2023-05-25T05:27:53.001Z,14.82
2023-05-25T05:30:22.350Z,15.20
2023-05-25T05:32:50.618Z,15.38
2023-05-25T05:35:20.355Z,15.48
2023-05-25T05:37:48.495Z,15.49
2023-05-25T05:40:16.777Z,15.42
2023-05-25T05:42:44.946Z,15.35
2023-05-25T05:45:13.575Z,15.30
2023-05-25T05:47:41.710Z,15.30
2023-05-25T05:50:10.865Z,15.31
2023-05-25T05:52:40.421Z,15.27
2023-05-25T05:55:09.192Z,15.23
2023-05-25T05:57:37.442Z,15.28
2023-05-25T06:00:07.148Z,15.35
2023-05-25T06:02:36.644Z,15.38
2023-05-25T06:05:06.966Z,15.45
2023-05-25T06:07:35.458Z,15.72
2023-05-25T06:10:05.453Z,16.06
2023-05-25T06:12:33.651Z,16.38
2023-05-25T06:15:02.101Z,16.71
2023-05-25T06:17:30.943Z,16.95
2023-05-25T06:19:59.470Z,17.07
2023-05-25T06:22:28.971Z,17.06
2023-05-25T06:24:57.811Z,17.26
2023-05-25T06:27:27.407Z,17.55
2023-05-25T06:29:55.615Z,17.84
2023-05-25T06:32:23.787Z,18.12
2023-05-25T06:34:51.896Z,18.38
2023-05-25T06:37:20.098Z,18.59
2023-05-25T06:39:48.215Z,18.74
2023-05-25T06:42:16.418Z,18.82
2023-05-25T06:44:45.995Z,19.08
2023-05-25T06:47:14.154Z,19.14
2023-05-25T06:49:42.274Z,18.86
2023-05-25T06:52:10.409Z,18.46
2023-05-25T06:54:41.589Z,18.06
2023-05-25T06:57:09.728Z,17.69
2023-05-25T06:59:37.974Z,17.42
2023-05-25T07:02:08.047Z,17.33
2023-05-25T07:04:36.317Z,17.34
2023-05-25T07:07:04.549Z,17.50
2023-05-25T07:09:32.731Z,17.57
2023-05-25T07:12:01.266Z,17.76
2023-05-25T07:14:29.469Z,17.90
2023-05-25T07:16:57.630Z,18.02
2023-05-25T07:19:27.479Z,18.06
2023-05-25T07:21:55.633Z,18.16
2023-05-25T07:24:23.867Z,18.11
2023-05-25T07:26:52.097Z,18.06
2023-05-25T07:29:20.202Z,17.88
2023-05-25T07:31:48.538Z,17.68
2023-05-25T07:34:16.802Z,17.56
2023-05-25T07:36:46.344Z,17.41
2023-05-25T07:39:14.600Z,17.27
2023-05-25T07:41:42.676Z,17.20
2023-05-25T07:44:10.990Z,17.21
2023-05-25T07:46:39.264Z,17.18
2023-05-25T07:49:12.194Z,17.08
2023-05-25T07:51:40.453Z,16.97
2023-05-25T07:54:10.080Z,16.97
2023-05-25T07:56:38.452Z,16.97
2023-05-25T07:59:06.770Z,16.91
2023-05-25T08:01:36.174Z,16.90
2023-05-25T08:04:04.588Z,17.00
2023-05-25T08:06:34.568Z,17.03
2023-05-25T08:09:05.109Z,17.03
2023-05-25T08:11:34.717Z,17.01
2023-05-25T08:14:02.856Z,17.01
2023-05-25T08:16:31.036Z,16.97
2023-05-25T08:19:01.694Z,16.96
2023-05-25T08:21:29.945Z,16.92
2023-05-25T08:23:58.105Z,16.90
2023-05-25T08:26:38.440Z,16.88
2023-05-25T08:29:15.426Z,16.91
2023-05-25T08:31:45.893Z,16.89
2023-05-25T08:34:14.026Z,16.82
2023-05-25T08:36:42.139Z,16.96
2023-05-25T08:39:10.718Z,17.04
2023-05-25T08:41:43.207Z,17.09
2023-05-25T08:44:11.421Z,17.14
2023-05-25T08:46:41.757Z,17.15
2023-05-25T08:49:11.980Z,17.17
2023-05-25T08:51:44.668Z,17.20
2023-05-25T08:54:15.260Z,17.30
2023-05-25T08:56:50.073Z,17.47
2023-05-25T08:59:33.239Z,17.56
2023-05-25T09:02:14.922Z,17.61
2023-05-25T09:04:44.731Z,17.67
2023-05-25T09:07:13.395Z,17.73
2023-05-25T09:09:42.481Z,17.83
2023-05-25T09:12:11.048Z,17.92
2023-05-25T09:14:45.644Z,17.92
2023-05-25T09:17:15.941Z,18.07
2023-05-25T09:19:44.229Z,18.10
2023-05-25T09:22:16.499Z,18.13
2023-05-25T09:24:46.158Z,18.16
2023-05-25T09:27:19.343Z,18.21
2023-05-25T09:29:49.673Z,18.26
2023-05-25T09:32:20.275Z,18.26
2023-05-25T09:34:49.112Z,18.25
2023-05-25T09:37:19.489Z,18.30
2023-05-25T09:39:48.865Z,18.37
2023-05-25T09:42:17.742Z,18.44
2023-05-25T09:44:46.274Z,18.50
2023-05-25T09:47:16.982Z,18.55
2023-05-25T09:49:47.884Z,18.63
2023-05-25T09:52:16.674Z,18.70
2023-05-25T09:54:46.711Z,18.75
2023-05-25T09:57:16.213Z,18.82
2023-05-25T09:59:45.379Z,18.91
2023-05-25T10:02:14.393Z,18.95
2023-05-25T10:04:42.738Z,19.02
2023-05-25T10:07:13.122Z,19.08
2023-05-25T10:09:42.853Z,19.12
2023-05-25T10:12:12.839Z,19.22
2023-05-25T10:14:41.889Z,19.23
2023-05-25T10:17:13.238Z,19.29
2023-05-25T10:19:47.844Z,19.34
2023-05-25T10:22:22.242Z,19.35
2023-05-25T10:24:58.716Z,19.37
2023-05-25T10:27:31.129Z,19.37
2023-05-25T10:30:01.272Z,19.44
2023-05-25T10:32:30.817Z,19.47
2023-05-25T10:35:00.519Z,19.53
2023-05-25T10:37:32.291Z,19.62
2023-05-25T10:40:02.656Z,19.72
2023-05-25T10:42:31.856Z,19.82
2023-05-25T10:45:00.973Z,19.91
2023-05-25T10:47:29.352Z,19.92
2023-05-25T10:49:58.899Z,19.95
2023-05-25T10:52:32.624Z,20.03
2023-05-25T10:55:04.418Z,19.99
2023-05-25T10:57:32.809Z,19.98
2023-05-25T11:00:07.134Z,20.02
2023-05-25T11:02:51.611Z,20.14
2023-05-25T11:05:40.825Z,20.24
2023-05-25T11:08:12.628Z,20.32
2023-05-25T11:11:01.785Z,20.51
2023-05-25T11:13:41.378Z,20.63
2023-05-25T11:16:25.541Z,20.62
2023-05-25T11:18:57.641Z,20.66
2023-05-25T11:21:44.425Z,20.75
2023-05-25T11:24:16.246Z,20.81
2023-05-25T11:26:56.609Z,20.83
2023-05-25T11:29:27.247Z,20.84
2023-05-25T11:31:56.741Z,20.92
2023-05-25T11:34:26.071Z,20.99
2023-05-25T11:37:01.759Z,21.11
2023-05-25T11:39:32.303Z,21.14
2023-05-25T11:42:05.287Z,21.13
2023-05-25T11:44:34.716Z,21.16
2023-05-25T11:47:06.144Z,21.19
2023-05-25T11:49:34.115Z,21.19
2023-05-25T11:52:07.641Z,21.22
2023-05-25T11:54:37.274Z,21.23
2023-05-25T11:57:06.519Z,21.28
2023-05-25T11:59:34.749Z,21.25
2023-05-25T12:02:04.561Z,21.32
2023-05-25T12:04:35.353Z,21.37
2023-05-25T12:07:04.763Z,21.35
2023-05-25T12:09:33.612Z,21.40
2023-05-25T12:12:05.738Z,21.52
2023-05-25T12:14:36.296Z,21.54
2023-05-25T12:17:04.643Z,21.61
2023-05-25T12:19:33.403Z,21.75
2023-05-25T12:22:01.799Z,21.85
2023-05-25T12:24:30.077Z,21.87
2023-05-25T12:26:59.256Z,21.71
2023-05-25T12:29:29.649Z,21.53
2023-05-25T12:32:03.988Z,21.56
2023-05-25T12:34:32.215Z,21.67
2023-05-25T12:37:01.610Z,21.65
2023-05-25T12:39:39.522Z,21.66
2023-05-25T12:42:15.417Z,21.68
2023-05-25T12:44:46.813Z,21.72
2023-05-25T12:47:16.771Z,21.75
2023-05-25T12:49:46.668Z,21.70
2023-05-25T12:52:33.733Z,21.60
2023-05-25T12:55:20.540Z,21.52
2023-05-25T12:57:52.489Z,21.52
2023-05-25T13:00:23.903Z,21.58
2023-05-25T13:02:52.128Z,21.40
2023-05-25T13:05:21.863Z,21.40
2023-05-25T13:07:50.447Z,21.40
2023-05-25T13:10:19.526Z,21.53
2023-05-25T13:12:48.694Z,21.60
2023-05-25T13:15:18.646Z,21.71
2023-05-25T13:17:48.799Z,21.76
2023-05-25T13:20:17.706Z,21.71
2023-05-25T13:22:47.605Z,21.68
2023-05-25T13:25:16.453Z,21.65
2023-05-25T13:27:46.009Z,21.68
2023-05-25T13:30:14.604Z,21.72
2023-05-25T13:32:43.919Z,21.73
2023-05-25T13:35:19.314Z,21.85
2023-05-25T13:37:47.808Z,21.73
2023-05-25T13:40:16.170Z,21.71
2023-05-25T13:42:44.793Z,21.72
2023-05-25T13:45:13.977Z,21.82
2023-05-25T13:47:43.796Z,21.84
2023-05-25T13:50:13.938Z,21.92
2023-05-25T13:52:42.061Z,21.99
2023-05-25T13:55:10.321Z,21.92
2023-05-25T13:57:38.782Z,21.75
2023-05-25T14:00:09.490Z,21.73
2023-05-25T14:02:37.798Z,21.63
2023-05-25T14:05:06.862Z,21.67
2023-05-25T14:07:36.392Z,21.72
2023-05-25T14:10:05.989Z,21.76
2023-05-25T14:12:34.286Z,21.76
2023-05-25T14:15:02.421Z,21.69
2023-05-25T14:17:30.593Z,21.56
2023-05-25T14:19:59.183Z,21.64
2023-05-25T14:22:28.116Z,21.53
2023-05-25T14:24:57.642Z,21.52
2023-05-25T14:27:26.025Z,21.31
2023-05-25T14:29:54.387Z,21.32
2023-05-25T14:32:22.623Z,21.39
2023-05-25T14:34:50.778Z,21.48
2023-05-25T14:37:19.506Z,21.65
2023-05-25T14:39:47.652Z,21.53
2023-05-25T14:42:17.225Z,21.49
2023-05-25T14:44:45.573Z,21.42
2023-05-25T14:47:13.729Z,21.32
2023-05-25T14:49:41.964Z,21.22
2023-05-25T14:52:10.125Z,21.21
2023-05-25T14:54:43.991Z,21.18
2023-05-25T14:57:12.643Z,21.16
2023-05-25T14:59:42.534Z,21.24
2023-05-25T15:02:10.733Z,21.31
2023-05-25T15:04:38.924Z,21.23
2023-05-25T15:07:07.085Z,21.29
2023-05-25T15:09:36.725Z,21.31
2023-05-25T15:12:05.314Z,21.22
2023-05-25T15:14:33.456Z,21.16
2023-05-25T15:17:02.971Z,21.16
2023-05-25T15:19:31.058Z,21.07
2023-05-25T15:21:59.268Z,20.95
2023-05-25T15:24:27.384Z,20.88
2023-05-25T15:26:55.552Z,20.92
2023-05-25T15:29:23.677Z,21.00
2023-05-25T15:31:53.635Z,21.08
2023-05-25T15:34:23.316Z,21.07
2023-05-25T15:36:51.529Z,21.05
2023-05-25T15:39:19.662Z,21.03
2023-05-25T15:41:47.804Z,21.03
2023-05-25T15:44:15.967Z,20.89
2023-05-25T15:46:44.240Z,20.86
2023-05-25T15:49:12.417Z,20.74
2023-05-25T15:51:43.942Z,20.70
2023-05-25T15:54:14.368Z,20.76
2023-05-25T15:56:43.201Z,20.68
2023-05-25T15:59:12.523Z,20.65
2023-05-25T16:01:41.251Z,20.74
2023-05-25T16:04:09.499Z,20.71
2023-05-25T16:06:38.505Z,20.72
2023-05-25T16:09:08.387Z,20.73
2023-05-25T16:11:36.581Z,20.64
2023-05-25T16:14:04.748Z,20.62
2023-05-25T16:16:33.038Z,20.63
2023-05-25T16:19:01.351Z,20.60
2023-05-25T16:21:29.690Z,20.61
2023-05-25T16:23:57.934Z,20.59
2023-05-25T16:26:27.516Z,20.57
2023-05-25T16:28:55.688Z,20.73
2023-05-25T16:31:24.321Z,20.70
2023-05-25T16:33:52.480Z,20.44
2023-05-25T16:36:20.833Z,20.53
2023-05-25T16:38:48.986Z,20.52
2023-05-25T16:41:17.097Z,20.38
2023-05-25T16:43:46.597Z,20.24
2023-05-25T16:46:14.805Z,19.95
2023-05-25T16:48:43.012Z,19.92
2023-05-25T16:51:15.172Z,19.98
2023-05-25T16:53:43.961Z,19.92
2023-05-25T16:56:12.154Z,19.85
2023-05-25T16:58:40.372Z,19.94
2023-05-25T17:01:13.039Z,19.99
2023-05-25T17:03:41.311Z,19.88
2023-05-25T17:06:09.970Z,19.77
2023-05-25T17:08:38.524Z,19.64
2023-05-25T17:11:06.796Z,19.54
2023-05-25T17:13:35.750Z,19.50
2023-05-25T17:16:04.001Z,19.38
2023-05-25T17:18:33.978Z,19.32
2023-05-25T17:21:02.362Z,19.22
2023-05-25T17:23:30.534Z,19.18
2023-05-25T17:25:58.720Z,19.23
2023-05-25T17:28:28.893Z,19.13
2023-05-25T17:30:58.957Z,19.02
2023-05-25T17:33:27.580Z,19.02
2023-05-25T17:35:57.169Z,19.02
2023-05-25T17:38:26.145Z,19.07
2023-05-25T17:40:54.264Z,19.09
2023-05-25T17:43:22.393Z,19.04
2023-05-25T17:45:50.566Z,19.08
2023-05-25T17:48:18.724Z,19.09
2023-05-25T17:50:46.862Z,19.09
2023-05-25T17:53:16.687Z,19.07
2023-05-25T17:55:45.060Z,19.01
2023-05-25T17:58:13.358Z,18.86
2023-05-25T18:00:41.619Z,18.76
2023-05-25T18:03:10.025Z,18.67
2023-05-25T18:05:38.279Z,18.54
2023-05-25T18:08:06.447Z,18.53
2023-05-25T18:10:36.044Z,18.42
2023-05-25T18:13:04.143Z,18.33
2023-05-25T18:15:32.313Z,18.34
2023-05-25T18:18:00.946Z,18.26
2023-05-25T18:20:29.180Z,18.18
2023-05-25T18:22:57.331Z,18.22
2023-05-25T18:25:25.546Z,18.21
2023-05-25T18:27:55.040Z,18.27
2023-05-25T18:30:23.143Z,18.17
2023-05-25T18:32:51.369Z,18.12
2023-05-25T18:35:19.537Z,18.09
2023-05-25T18:37:47.645Z,18.08
2023-05-25T18:40:16.518Z,18.07
2023-05-25T18:42:44.722Z,18.10
2023-05-25T18:45:14.806Z,18.10
2023-05-25T18:47:43.464Z,18.11
2023-05-25T18:50:12.896Z,18.07
2023-05-25T18:52:41.440Z,17.95
2023-05-25T18:55:10.264Z,17.93
2023-05-25T18:57:38.428Z,18.02
2023-05-25T19:00:08.946Z,18.05
2023-05-25T19:02:38.840Z,18.01
2023-05-25T19:05:08.057Z,17.98
2023-05-25T19:07:46.970Z,17.96
2023-05-25T19:10:23.508Z,17.98
2023-05-25T19:12:51.838Z,17.97
2023-05-25T19:15:20.073Z,17.98
2023-05-25T19:17:49.776Z,18.03
2023-05-25T19:20:18.126Z,18.02
2023-05-25T19:22:46.530Z,18.09
2023-05-25T19:25:14.648Z,17.98
2023-05-25T19:27:42.842Z,17.93
2023-05-25T19:30:11.456Z,17.98
2023-05-25T19:32:39.744Z,17.93
2023-05-25T19:35:09.868Z,17.85
2023-05-25T19:37:40.923Z,17.78
2023-05-25T19:40:11.105Z,17.64
2023-05-25T19:42:39.462Z,17.59
2023-05-25T19:45:08.217Z,17.59
2023-05-25T19:47:36.565Z,17.59
2023-05-25T19:50:05.103Z,17.61
2023-05-25T19:52:34.851Z,17.59
2023-05-25T19:55:03.088Z,17.61
2023-05-25T19:57:31.262Z,17.63
2023-05-25T19:59:59.553Z,17.60
2023-05-25T20:02:28.095Z,17.64
2023-05-25T20:04:56.309Z,17.58
2023-05-25T20:07:25.168Z,17.61
2023-05-25T20:09:54.772Z,17.64
2023-05-25T20:12:23.065Z,17.71
2023-05-25T20:14:51.192Z,17.71
2023-05-25T20:17:19.386Z,17.72
2023-05-25T20:19:52.497Z,17.67
2023-05-25T20:22:21.579Z,17.63
2023-05-25T20:24:50.138Z,17.56
2023-05-25T20:27:19.652Z,17.59
2023-05-25T20:29:48.152Z,17.61
2023-05-25T20:32:16.326Z,17.63
2023-05-25T20:34:44.619Z,17.61
2023-05-25T20:37:12.858Z,17.65
2023-05-25T20:39:40.988Z,17.68
2023-05-25T20:42:10.425Z,17.72
2023-05-25T20:44:40.093Z,17.60
2023-05-25T20:47:08.341Z,17.57
2023-05-25T20:49:36.553Z,17.51
2023-05-25T20:52:05.023Z,17.45
2023-05-25T20:54:33.548Z,17.42
2023-05-25T20:57:03.937Z,17.37
2023-05-25T20:59:32.474Z,17.42
2023-05-25T21:02:02.387Z,17.43
2023-05-25T21:04:31.826Z,17.41
2023-05-25T21:07:00.289Z,17.43
2023-05-25T21:09:28.532Z,17.49
2023-05-25T21:11:56.876Z,17.49
2023-05-25T21:14:25.010Z,17.49
2023-05-25T21:16:53.397Z,17.47
2023-05-25T21:19:22.900Z,17.43
2023-05-25T21:21:51.378Z,17.41
2023-05-25T21:24:19.541Z,17.43
2023-05-25T21:26:47.673Z,17.46
2023-05-25T21:29:15.901Z,17.47
2023-05-25T21:31:44.205Z,17.48
2023-05-25T21:34:12.383Z,17.46
2023-05-25T21:36:41.910Z,17.48
2023-05-25T21:39:10.073Z,17.46
2023-05-25T21:41:38.253Z,17.45
2023-05-25T21:44:06.560Z,17.50
2023-05-25T21:46:34.700Z,17.50
2023-05-25T21:49:02.910Z,17.49
2023-05-25T21:51:32.393Z,17.49
2023-05-25T21:54:02.462Z,17.49
2023-05-25T21:56:30.595Z,17.50
2023-05-25T21:58:58.785Z,17.54
2023-05-25T22:01:27.279Z,17.55
2023-05-25T22:03:55.422Z,17.55
2023-05-25T22:06:23.735Z,17.57
2023-05-25T22:08:51.893Z,17.54
2023-05-25T22:11:22.251Z,17.53
2023-05-25T22:13:50.567Z,17.51
2023-05-25T22:16:18.900Z,17.54
2023-05-25T22:18:47.091Z,17.48
2023-05-25T22:21:16.009Z,17.47
2023-05-25T22:23:44.180Z,17.46
2023-05-25T22:26:12.389Z,17.52
2023-05-25T22:28:41.976Z,17.50
2023-05-25T22:31:10.462Z,17.50
2023-05-25T22:33:38.817Z,17.52
2023-05-25T22:36:07.310Z,17.54
2023-05-25T22:38:35.587Z,17.54
2023-05-25T22:41:03.747Z,17.53
2023-05-25T22:43:31.871Z,17.54
2023-05-25T22:46:01.433Z,17.58
2023-05-25T22:48:30.161Z,17.60
2023-05-25T22:50:58.449Z,17.63
2023-05-25T22:53:26.616Z,17.60
2023-05-25T22:55:54.743Z,17.58
2023-05-25T22:58:22.903Z,17.57
2023-05-25T23:00:51.282Z,17.57
2023-05-25T23:03:20.976Z,17.56
2023-05-25T23:05:49.339Z,17.52
2023-05-25T23:08:17.550Z,17.51
2023-05-25T23:10:45.745Z,17.47
2023-05-25T23:13:15.645Z,17.47
2023-05-25T23:15:44.876Z,17.45
2023-05-25T23:18:13.232Z,17.39
2023-05-25T23:20:43.027Z,17.37
2023-05-25T23:23:11.268Z,17.35
2023-05-25T23:25:39.439Z,17.37
2023-05-25T23:28:07.629Z,17.40
2023-05-25T23:30:35.802Z,17.38
2023-05-25T23:33:04.020Z,17.29
2023-05-25T23:35:32.237Z,17.33
2023-05-25T23:38:02.027Z,17.31
2023-05-25T23:40:30.244Z,17.32
2023-05-25T23:42:58.436Z,17.28
2023-05-25T23:45:26.624Z,17.28
2023-05-25T23:47:54.820Z,17.26
2023-05-25T23:50:22.987Z,17.23
2023-05-25T23:52:51.199Z,17.18
2023-05-25T23:55:20.832Z,17.12
2023-05-25T23:57:49.024Z,17.05
